createdAt,value
2023-06-04T00:01:50.529Z,101039.69
2023-06-04T00:04:18.403Z,101033.25
2023-06-04T00:06:46.195Z,101032.85
2023-06-04T00:09:13.924Z,101030.98
2023-06-04T00:11:41.775Z,101029.23
2023-06-04T00:14:09.485Z,101026.31
2023-06-04T00:16:37.824Z,101025.92
2023-06-04T00:19:05.828Z,101026.84
2023-06-04T00:21:33.523Z,101026.85
2023-06-04T00:24:02.277Z,101019.82
2023-06-04T00:26:30.115Z,101018.86
2023-06-04T00:28:58.086Z,101023.15
2023-06-04T00:31:25.923Z,101022.63
2023-06-04T00:33:53.647Z,101021.76
2023-06-04T00:36:21.361Z,101018.78
2023-06-04T00:38:49.162Z,101021.17
2023-06-04T00:41:17.663Z,101018.52
2023-06-04T00:43:56.562Z,101018.27
2023-06-04T00:46:27.969Z,101019.17
2023-06-04T00:48:56.372Z,101017.34
2023-06-04T00:51:24.790Z,101013.42
2023-06-04T00:53:53.802Z,101013.73
2023-06-04T00:56:21.698Z,101016.38
2023-06-04T00:58:49.548Z,101014.39
2023-06-04T01:01:46.392Z,101015.36
2023-06-04T01:04:25.132Z,101013.59
2023-06-04T01:06:57.363Z,101010.60
2023-06-04T01:09:28.871Z,101010.62
2023-06-04T01:11:59.623Z,101011.31
2023-06-04T01:14:27.561Z,101010.27
2023-06-04T01:17:04.796Z,101011.70
2023-06-04T01:19:33.332Z,101009.95
2023-06-04T01:22:05.342Z,101010.15
2023-06-04T01:24:39.653Z,101009.41
2023-06-04T01:27:08.762Z,101010.80
2023-06-04T01:29:37.358Z,101008.48
2023-06-04T01:32:06.133Z,101011.75
2023-06-04T01:34:45.090Z,101010.80
2023-06-04T01:37:13.574Z,101014.01
2023-06-04T01:39:43.783Z,101009.00
2023-06-04T01:42:11.747Z,101012.23
2023-06-04T01:44:39.565Z,101009.33
2023-06-04T01:47:07.292Z,101009.19
2023-06-04T01:49:35.153Z,101008.65
2023-06-04T01:52:02.928Z,101010.55
2023-06-04T01:54:31.418Z,101005.75
2023-06-04T01:56:59.128Z,101008.11
2023-06-04T01:59:28.178Z,101007.39
2023-06-04T02:01:55.889Z,101003.60
2023-06-04T02:04:24.169Z,101005.12
2023-06-04T02:06:51.880Z,101004.94
2023-06-04T02:09:19.722Z,100997.78
2023-06-04T02:11:47.654Z,100998.00
2023-06-04T02:14:15.445Z,101000.95
2023-06-04T02:16:43.301Z,100999.96
2023-06-04T02:19:14.133Z,100998.09
2023-06-04T02:21:41.882Z,100998.47
2023-06-04T02:24:09.717Z,100998.08
2023-06-04T02:26:37.555Z,100999.70
2023-06-04T02:29:05.693Z,100998.53
2023-06-04T02:31:33.503Z,100995.89
2023-06-04T02:34:01.268Z,100996.06
2023-06-04T02:36:31.303Z,100997.45
2023-06-04T02:38:59.161Z,100999.04
2023-06-04T02:41:26.947Z,100997.89
2023-06-04T02:43:54.773Z,100998.98
2023-06-04T02:46:22.524Z,100999.20
2023-06-04T02:48:50.249Z,101001.48
2023-06-04T02:51:18.527Z,101000.39
2023-06-04T02:53:47.309Z,101003.15
2023-06-04T02:56:15.128Z,101002.13
2023-06-04T02:58:59.404Z,100999.40
2023-06-04T03:01:28.237Z,100997.61
2023-06-04T03:03:56.222Z,101001.48
2023-06-04T03:06:24.693Z,101004.80
2023-06-04T03:08:53.809Z,101003.85
2023-06-04T03:11:22.438Z,101004.32
2023-06-04T03:13:50.365Z,101007.33
2023-06-04T03:16:18.348Z,101004.73
2023-06-04T03:18:46.140Z,101005.63
2023-06-04T03:21:14.369Z,101003.39
2023-06-04T03:23:42.313Z,101007.58
2023-06-04T03:26:10.209Z,101005.38
2023-06-04T03:28:37.990Z,101005.83
2023-06-04T03:31:06.207Z,101004.63
2023-06-04T03:33:34.230Z,101005.75
2023-06-04T03:36:02.992Z,101003.02
2023-06-04T03:38:30.754Z,101006.13
2023-06-04T03:40:58.567Z,101004.04
2023-06-04T03:43:26.322Z,101008.95
2023-06-04T03:45:54.461Z,101007.38
2023-06-04T03:48:22.416Z,101012.64
2023-06-04T03:50:50.533Z,101010.64
2023-06-04T03:53:18.372Z,101015.80
2023-06-04T03:55:46.110Z,101013.63
2023-06-04T03:58:15.768Z,101018.30
2023-06-04T04:00:43.624Z,101020.14
2023-06-04T04:03:11.478Z,101017.33
2023-06-04T04:05:39.407Z,101015.55
2023-06-04T04:08:07.197Z,101016.81
2023-06-04T04:10:34.982Z,101016.13
2023-06-04T04:13:02.773Z,101010.48
2023-06-04T04:15:30.598Z,101015.42
2023-06-04T04:17:58.472Z,101014.44
2023-06-04T04:20:26.801Z,101012.52
2023-06-04T04:22:54.584Z,101015.76
2023-06-04T04:25:22.461Z,101016.91
2023-06-04T04:27:50.265Z,101017.95
2023-06-04T04:30:18.963Z,101017.03
2023-06-04T04:32:50.201Z,101017.19
2023-06-04T04:35:19.184Z,101015.14
2023-06-04T04:37:47.031Z,101016.58
2023-06-04T04:40:15.634Z,101016.48
2023-06-04T04:42:43.526Z,101018.09
2023-06-04T04:45:11.740Z,101010.70
2023-06-04T04:47:39.658Z,101012.89
2023-06-04T04:50:08.081Z,101015.14
2023-06-04T04:52:35.981Z,101013.55
2023-06-04T04:55:04.130Z,101015.83
2023-06-04T04:57:31.914Z,101015.76
2023-06-04T04:59:59.772Z,101017.52
2023-06-04T05:02:27.625Z,101013.94
2023-06-04T05:04:55.473Z,101013.20
2023-06-04T05:07:24.625Z,101012.36
2023-06-04T05:09:52.401Z,101011.30
2023-06-04T05:12:20.114Z,101013.20
2023-06-04T05:14:47.874Z,101012.23
2023-06-04T05:17:17.572Z,101018.48
2023-06-04T05:19:45.389Z,101013.60
2023-06-04T05:22:13.814Z,101017.03
2023-06-04T05:24:41.590Z,101014.02
2023-06-04T05:27:10.590Z,101016.77
2023-06-04T05:29:38.434Z,101013.64
2023-06-04T05:32:06.511Z,101016.75
2023-06-04T05:34:37.783Z,101019.88
2023-06-04T05:37:12.262Z,101017.17
2023-06-04T05:39:40.218Z,101013.66
2023-06-04T05:42:08.007Z,101012.84
2023-06-04T05:44:35.924Z,101012.27
2023-06-04T05:47:03.795Z,101009.90
2023-06-04T05:49:31.656Z,101008.85
2023-06-04T05:51:59.383Z,101013.50
2023-06-04T05:54:28.146Z,101018.13
2023-06-04T05:56:56.233Z,101015.05
2023-06-04T05:59:23.931Z,101019.44
2023-06-04T06:01:51.750Z,101026.55
2023-06-04T06:04:19.612Z,101030.88
2023-06-04T06:06:49.655Z,101029.37
2023-06-04T06:09:17.669Z,101031.21
2023-06-04T06:11:45.397Z,101032.18
2023-06-04T06:14:13.136Z,101029.73
2023-06-04T06:16:41.817Z,101031.37
2023-06-04T06:19:09.580Z,101029.63
2023-06-04T06:21:37.387Z,101032.02
2023-06-04T06:24:05.847Z,101034.34
2023-06-04T06:26:33.639Z,101033.41
2023-06-04T06:29:01.775Z,101034.23
2023-06-04T06:31:29.950Z,101037.01
2023-06-04T06:33:57.707Z,101041.79
2023-06-04T06:36:25.438Z,101041.36
2023-06-04T06:38:53.607Z,101047.02
2023-06-04T06:41:21.975Z,101050.83
2023-06-04T06:43:49.837Z,101046.80
2023-06-04T06:46:17.678Z,101050.94
2023-06-04T06:48:46.798Z,101055.27
2023-06-04T06:51:14.928Z,101056.73
2023-06-04T06:53:43.077Z,101057.49
2023-06-04T06:56:11.093Z,101062.54
2023-06-04T06:58:39.037Z,101058.61
2023-06-04T07:01:08.290Z,101059.36
2023-06-04T07:03:36.530Z,101058.84
2023-06-04T07:06:05.882Z,101062.46
2023-06-04T07:08:37.019Z,101065.45
2023-06-04T07:18:15.311Z,101065.14
2023-06-04T07:20:57.517Z,101062.57
2023-06-04T07:23:41.988Z,101060.64
2023-06-04T07:29:31.623Z,101060.83
2023-06-04T07:32:43.092Z,101056.66
2023-06-04T07:35:16.709Z,101057.95
2023-06-04T07:37:50.161Z,101055.31
2023-06-04T07:40:18.444Z,101057.59
2023-06-04T07:42:47.872Z,101057.77
2023-06-04T07:45:16.719Z,101064.13
2023-06-04T07:47:44.695Z,101059.97
2023-06-04T07:50:12.727Z,101064.89
2023-06-04T07:52:40.627Z,101067.52
2023-06-04T07:55:09.484Z,101066.10
2023-06-04T07:57:37.421Z,101065.34
2023-06-04T08:00:06.963Z,101059.09
2023-06-04T08:02:35.122Z,101063.73
2023-06-04T08:05:20.223Z,101065.15
2023-06-04T08:07:48.724Z,101068.20
2023-06-04T08:10:16.591Z,101069.39
2023-06-04T08:12:44.534Z,101066.67
2023-06-04T08:15:24.457Z,101066.42
2023-06-04T08:17:52.417Z,101063.55
2023-06-04T08:20:29.446Z,101064.98
2023-06-04T08:22:57.402Z,101062.38
2023-06-04T08:25:25.198Z,101059.57
2023-06-04T08:27:53.148Z,101061.15
2023-06-04T08:30:20.925Z,101064.54
2023-06-04T08:32:49.698Z,101066.73
2023-06-04T08:35:17.564Z,101059.30
2023-06-04T08:37:45.364Z,101059.93
2023-06-04T08:40:13.383Z,101055.55
2023-06-04T08:42:48.014Z,101049.46
2023-06-04T08:45:17.641Z,101050.66
2023-06-04T08:47:49.766Z,101047.44
2023-06-04T08:50:19.313Z,101048.34
2023-06-04T08:52:48.270Z,101049.21
2023-06-04T08:55:16.457Z,101050.98
2023-06-04T08:57:44.677Z,101051.16
2023-06-04T09:00:14.106Z,101047.66
2023-06-04T09:02:42.200Z,101049.61
2023-06-04T09:05:11.577Z,101048.32
2023-06-04T09:07:42.181Z,101047.27
2023-06-04T09:10:13.876Z,101046.95
2023-06-04T09:12:45.306Z,101047.96
2023-06-04T09:15:13.375Z,101050.58
2023-06-04T09:17:47.685Z,101057.33
2023-06-04T09:20:23.257Z,101064.04
2023-06-04T09:22:54.973Z,101052.42
2023-06-04T09:25:28.137Z,101054.13
2023-06-04T09:28:07.953Z,101047.23
2023-06-04T09:30:36.430Z,101048.72
2023-06-04T09:33:09.034Z,101052.37
2023-06-04T09:35:37.462Z,101052.37
2023-06-04T09:38:06.388Z,101050.70
2023-06-04T09:40:39.154Z,101054.27
2023-06-04T09:43:07.319Z,101048.95
2023-06-04T09:45:36.585Z,101047.67
2023-06-04T09:48:09.397Z,101039.15
2023-06-04T09:50:43.172Z,101043.73
2023-06-04T09:53:23.878Z,101043.57
2023-06-04T09:55:59.473Z,101041.29
2023-06-04T09:58:28.593Z,101043.52
2023-06-04T10:00:58.234Z,101042.67
2023-06-04T10:07:09.433Z,101036.41
2023-06-04T10:09:46.635Z,101028.76
2023-06-04T10:12:21.608Z,101024.18
2023-06-04T10:15:02.997Z,101026.70
2023-06-04T10:17:32.176Z,101022.38
2023-06-04T10:20:05.018Z,101020.97
2023-06-04T10:26:52.546Z,101017.66
2023-06-04T10:29:34.012Z,101022.20
2023-06-04T10:32:25.338Z,101019.81
2023-06-04T10:35:15.056Z,101021.63
2023-06-04T10:38:03.406Z,101019.63
2023-06-04T10:40:47.135Z,101018.31
2023-06-04T10:43:20.206Z,101018.75
2023-06-04T10:45:49.019Z,101013.34
2023-06-04T10:50:54.005Z,101017.23
2023-06-04T10:54:33.593Z,101011.94
2023-06-04T10:57:12.470Z,101012.92
2023-06-04T10:59:40.768Z,101012.92
2023-06-04T11:02:10.022Z,100998.70
2023-06-04T11:04:41.350Z,100992.70
2023-06-04T11:07:10.307Z,100992.27
2023-06-04T11:09:48.539Z,100995.83
2023-06-04T11:12:16.710Z,100993.29
2023-06-04T11:14:58.221Z,100998.57
2023-06-04T11:17:26.133Z,101003.11
2023-06-04T11:19:57.007Z,101004.94
2023-06-04T11:22:25.210Z,101007.40
2023-06-04T11:25:00.431Z,101008.59
2023-06-04T11:30:03.814Z,101005.27
2023-06-04T11:32:32.171Z,101003.95
2023-06-04T11:35:07.652Z,101001.30
2023-06-04T11:37:36.882Z,101001.23
2023-06-04T11:40:18.875Z,100999.91
2023-06-04T11:42:48.802Z,100996.67
2023-06-04T11:45:19.081Z,100998.27
2023-06-04T11:47:56.583Z,100995.08
2023-06-04T11:50:28.345Z,100991.88
2023-06-04T11:52:57.765Z,100991.02
2023-06-04T11:55:27.194Z,100991.94
2023-06-04T11:57:56.140Z,100991.56
2023-06-04T12:00:24.240Z,100996.96
2023-06-04T12:02:55.018Z,100992.75
2023-06-04T12:05:33.243Z,100988.78
2023-06-04T12:08:10.196Z,100986.16
2023-06-04T12:10:43.068Z,100981.05
2023-06-04T12:13:11.323Z,100980.64
2023-06-04T12:15:39.317Z,100984.85
2023-06-04T12:18:07.479Z,100987.98
2023-06-04T12:20:40.698Z,100983.66
2023-06-04T12:23:08.749Z,100989.89
2023-06-04T12:25:38.893Z,100989.89
2023-06-04T12:28:07.277Z,100993.38
2023-06-04T12:32:40.370Z,100995.55
2023-06-04T12:36:19.515Z,100993.23
2023-06-04T12:50:26.219Z,100987.39
2023-06-04T12:52:54.098Z,100984.10
2023-06-04T12:55:22.063Z,100983.70
2023-06-04T12:57:50.008Z,100975.42
2023-06-04T13:00:18.008Z,100977.48
2023-06-04T13:02:46.267Z,100976.30
2023-06-04T13:06:10.989Z,100969.46
2023-06-04T13:34:08.980Z,100939.35
2023-06-04T13:37:06.915Z,100940.39
2023-06-04T13:50:59.251Z,100936.77
2023-06-04T13:53:45.914Z,100941.98
2023-06-04T13:56:14.170Z,100939.70
2023-06-04T13:58:41.944Z,100941.02
2023-06-04T14:01:10.010Z,100937.24
2023-06-04T14:03:38.523Z,100933.61
2023-06-04T14:06:06.721Z,100933.90
2023-06-04T14:08:34.686Z,100935.04
2023-06-04T14:17:52.528Z,100925.32
2023-06-04T14:31:57.118Z,100924.77
2023-06-04T14:34:25.608Z,100920.47
2023-06-04T14:36:53.804Z,100925.13
2023-06-04T14:39:29.065Z,100924.48
2023-06-04T14:41:59.695Z,100917.52
2023-06-04T14:44:27.453Z,100923.15
2023-06-04T14:46:55.337Z,100925.54
2023-06-04T14:49:23.730Z,100930.08
2023-06-04T14:51:51.590Z,100929.55
2023-06-04T14:56:38.023Z,100929.87
2023-06-04T14:59:56.627Z,100927.70
2023-06-04T15:04:07.134Z,100924.52
2023-06-04T15:18:12.691Z,100916.21
2023-06-04T15:20:58.491Z,100917.52
2023-06-04T15:23:26.555Z,100920.42
2023-06-04T15:25:54.737Z,100918.70
2023-06-04T15:28:22.718Z,100913.46
2023-06-04T15:30:50.692Z,100913.01
2023-06-04T15:33:18.567Z,100915.44
2023-06-04T15:35:46.351Z,100921.41
2023-06-04T15:38:14.152Z,100919.41
2023-06-04T15:40:42.249Z,100916.49
2023-06-04T15:43:10.276Z,100917.01
2023-06-04T15:47:26.200Z,100918.23
2023-06-04T15:49:54.496Z,100919.13
2023-06-04T15:52:48.273Z,100913.92
2023-06-04T15:55:17.233Z,100904.40
2023-06-04T15:57:45.087Z,100902.17
2023-06-04T16:00:13.811Z,100888.80
2023-06-04T16:03:53.686Z,100889.14
2023-06-04T16:08:03.768Z,100881.44
2023-06-04T16:11:17.375Z,100877.76
2023-06-04T16:15:09.333Z,100876.46
2023-06-04T16:28:39.183Z,100875.76
2023-06-04T16:32:24.023Z,100876.20
2023-06-04T16:36:25.653Z,100875.52
2023-06-04T16:39:45.934Z,100873.85
2023-06-04T16:53:59.555Z,100867.98
2023-06-04T16:56:28.290Z,100870.23
2023-06-04T16:58:57.241Z,100868.41
2023-06-04T17:01:26.028Z,100872.98
2023-06-04T17:03:55.134Z,100875.08
2023-06-04T17:06:23.494Z,100877.08
2023-06-04T17:08:52.032Z,100875.55
2023-06-04T17:11:20.922Z,100872.34
2023-06-04T17:13:50.544Z,100874.30
2023-06-04T17:16:19.038Z,100875.66
2023-06-04T17:18:47.796Z,100877.24
2023-06-04T17:21:18.385Z,100871.80
2023-06-04T17:23:49.498Z,100874.68
2023-06-04T17:26:18.171Z,100871.55
2023-06-04T17:28:46.494Z,100869.05
2023-06-04T17:31:19.334Z,100871.42
2023-06-04T17:33:47.867Z,100870.16
2023-06-04T17:36:16.528Z,100871.65
2023-06-04T17:38:45.135Z,100871.15
2023-06-04T17:41:13.603Z,100873.36
2023-06-04T17:43:44.904Z,100874.33
2023-06-04T17:46:13.642Z,100876.46
2023-06-04T17:48:42.684Z,100875.63
2023-06-04T17:51:11.716Z,100872.19
2023-06-04T17:53:40.971Z,100872.66
2023-06-04T17:56:10.818Z,100872.36
2023-06-04T17:58:40.070Z,100870.51
2023-06-04T18:01:08.744Z,100869.86
2023-06-04T18:03:36.830Z,100870.63
2023-06-04T18:06:05.361Z,100871.23
2023-06-04T18:08:33.502Z,100874.52
2023-06-04T18:11:01.693Z,100874.69
2023-06-04T18:13:29.832Z,100873.20
2023-06-04T18:15:57.748Z,100878.29
2023-06-04T18:18:26.869Z,100879.73
2023-06-04T18:20:57.209Z,100881.00
2023-06-04T18:23:25.436Z,100882.98
2023-06-04T18:25:53.727Z,100888.48
2023-06-04T18:28:21.755Z,100892.67
2023-06-04T18:30:49.676Z,100894.56
2023-06-04T18:33:17.948Z,100891.83
2023-06-04T18:35:46.064Z,100892.24
2023-06-04T18:38:15.947Z,100893.48
2023-06-04T18:40:43.722Z,100897.66
2023-06-04T18:43:12.153Z,100898.80
2023-06-04T18:45:40.429Z,100903.93
2023-06-04T18:48:08.353Z,100903.63
2023-06-04T18:50:36.403Z,100903.33
2023-06-04T18:53:04.473Z,100901.04
2023-06-04T18:55:32.455Z,100901.52
2023-06-04T18:58:00.521Z,100901.20
2023-06-04T19:00:29.971Z,100906.31
2023-06-04T19:03:00.752Z,100908.80
2023-06-04T19:05:31.172Z,100911.04
2023-06-04T19:08:01.334Z,100914.16
2023-06-04T19:10:29.612Z,100916.84
2023-06-04T19:12:57.817Z,100914.52
2023-06-04T19:15:26.091Z,100915.20
2023-06-04T19:17:54.312Z,100916.01
2023-06-04T19:20:22.572Z,100916.31
2023-06-04T19:22:50.728Z,100914.98
2023-06-04T19:25:18.964Z,100924.31
2023-06-04T19:27:46.827Z,100922.93
2023-06-04T19:30:16.151Z,100919.70
2023-06-04T19:32:45.147Z,100923.40
2023-06-04T19:35:13.528Z,100920.15
2023-06-04T19:37:42.115Z,100925.47
2023-06-04T19:40:10.763Z,100926.73
2023-06-04T19:42:39.213Z,100925.77
2023-06-04T19:45:08.544Z,100924.99
2023-06-04T19:47:38.550Z,100929.14
2023-06-04T19:50:07.832Z,100933.48
2023-06-04T19:52:35.758Z,100933.77
2023-06-04T19:55:05.469Z,100932.38
2023-06-04T19:57:33.290Z,100930.68
2023-06-04T20:00:01.393Z,100935.87
2023-06-04T20:02:29.754Z,100937.37
2023-06-04T20:04:57.926Z,100934.79
2023-06-04T20:07:27.644Z,100934.14
2023-06-04T20:09:57.577Z,100934.59
2023-06-04T20:12:25.734Z,100940.42
2023-06-04T20:14:53.697Z,100939.89
2023-06-04T20:17:21.760Z,100942.15
2023-06-04T20:19:49.757Z,100945.46
2023-06-04T20:22:17.719Z,100943.18
2023-06-04T20:24:46.525Z,100941.38
2023-06-04T20:27:17.883Z,100939.36
2023-06-04T20:29:45.905Z,100936.69
2023-06-04T20:32:13.677Z,100940.51
2023-06-04T20:34:41.951Z,100945.56
2023-06-04T20:37:11.627Z,100944.13
2023-06-04T20:39:40.673Z,100944.30
2023-06-04T20:42:08.606Z,100945.80
2023-06-04T20:44:36.705Z,100946.67
2023-06-04T20:47:06.447Z,100942.73
2023-06-04T20:49:34.241Z,100948.96
2023-06-04T20:52:02.195Z,100944.33
2023-06-04T20:54:30.240Z,100944.65
2023-06-04T20:56:58.151Z,100946.85
2023-06-04T20:59:25.973Z,100947.57
2023-06-04T21:01:54.036Z,100947.89
2023-06-04T21:04:22.355Z,100949.25
2023-06-04T21:06:50.373Z,100949.34
2023-06-04T21:09:18.946Z,100950.17
2023-06-04T21:11:46.787Z,100948.40
2023-06-04T21:14:14.809Z,100947.52
2023-06-04T21:16:43.099Z,100949.58
2023-06-04T21:19:20.405Z,100947.31
2023-06-04T21:21:48.144Z,100944.77
2023-06-04T21:24:16.038Z,100947.95
2023-06-04T21:26:53.178Z,100950.48
2023-06-04T21:29:23.877Z,100952.06
2023-06-04T21:31:51.979Z,100954.80
2023-06-04T21:34:23.027Z,100952.80
2023-06-04T21:37:16.093Z,100958.73
2023-06-04T21:39:43.971Z,100960.80
2023-06-04T21:42:11.682Z,100962.48
2023-06-04T21:44:39.414Z,100959.96
2023-06-04T21:47:07.746Z,100960.48
2023-06-04T21:49:37.831Z,100966.86
2023-06-04T21:52:13.787Z,100966.64
2023-06-04T21:54:49.261Z,100964.98
2023-06-04T21:57:17.056Z,100968.92
2023-06-04T21:59:44.956Z,100969.58
2023-06-04T22:02:13.271Z,100973.54
2023-06-04T22:04:41.140Z,100975.48
2023-06-04T22:07:09.224Z,100976.63
2023-06-04T22:09:37.072Z,100977.71
2023-06-04T22:12:05.040Z,100978.15
2023-06-04T22:14:33.483Z,100979.19
2023-06-04T22:17:01.385Z,100979.00
2023-06-04T22:19:29.357Z,100978.42
2023-06-04T22:21:57.250Z,100976.83
2023-06-04T22:24:25.219Z,100975.66
2023-06-04T22:26:52.975Z,100970.78
2023-06-04T22:29:21.228Z,100972.45
2023-06-04T22:31:49.212Z,100974.81
2023-06-04T22:34:17.244Z,100975.34
2023-06-04T22:36:45.767Z,100976.85
2023-06-04T22:39:13.634Z,100975.05
2023-06-04T22:41:41.367Z,100976.60
2023-06-04T22:44:09.165Z,100977.88
2023-06-04T22:46:37.164Z,100975.98
2023-06-04T22:49:04.984Z,100980.33
2023-06-04T22:51:32.983Z,100982.13
2023-06-04T22:54:00.871Z,100981.45
2023-06-04T22:56:41.975Z,100978.05
2023-06-04T22:59:11.610Z,100978.11
2023-06-04T23:01:41.262Z,100973.23
2023-06-04T23:04:09.305Z,100975.63
2023-06-04T23:06:37.799Z,100976.20
2023-06-04T23:09:05.866Z,100976.12
2023-06-04T23:11:33.668Z,100977.30
2023-06-04T23:14:01.560Z,100983.75
2023-06-04T23:16:29.403Z,100978.56
2023-06-04T23:18:57.308Z,100982.27
2023-06-04T23:21:25.492Z,100981.77
2023-06-04T23:23:53.405Z,100986.34
2023-06-04T23:26:22.321Z,100980.74
2023-06-04T23:28:50.077Z,100979.90
2023-06-04T23:31:17.900Z,100983.46
2023-06-04T23:33:45.630Z,100985.47
2023-06-04T23:36:13.545Z,100987.58
2023-06-04T23:38:41.288Z,100985.98
2023-06-04T23:41:09.318Z,100986.65
2023-06-04T23:43:37.235Z,100988.89
2023-06-04T23:46:05.619Z,100986.30
2023-06-04T23:48:33.744Z,100985.90
2023-06-04T23:51:01.512Z,100987.80
2023-06-04T23:53:29.324Z,100987.18
2023-06-04T23:55:57.127Z,100984.27
2023-06-04T23:58:24.876Z,100985.80
